createdAt,value
2022-12-29T00:06:48.490Z,10.3
2022-12-29T00:21:48.506Z,10.4
2022-12-29T00:36:48.544Z,10.4
2022-12-29T00:51:48.568Z,10.4
2022-12-29T01:06:48.538Z,10.4
2022-12-29T01:21:48.558Z,10.6
2022-12-29T01:36:48.519Z,10.4
2022-12-29T01:51:48.466Z,10.6
2022-12-29T02:06:48.517Z,10.6
2022-12-29T02:21:48.553Z,10.8
2022-12-29T02:36:48.518Z,10.4
2022-12-29T02:51:48.507Z,10.1
2022-12-29T03:06:48.509Z,10.1
2022-12-29T03:21:48.540Z,10.6
2022-12-29T03:36:48.500Z,10.7
2022-12-29T03:51:51.699Z,10.6
2022-12-29T04:06:48.495Z,10.8
2022-12-29T04:21:48.522Z,10.8
2022-12-29T04:36:48.485Z,10.9
2022-12-29T04:51:48.494Z,10.9
2022-12-29T05:06:48.491Z,11
2022-12-29T05:21:48.517Z,10.9
2022-12-29T05:36:48.423Z,10.7
2022-12-29T05:51:48.509Z,10.4
2022-12-29T06:06:48.538Z,10.4
2022-12-29T06:21:48.515Z,10.4
2022-12-29T06:36:48.514Z,10.4
2022-12-29T06:51:48.513Z,10.5
2022-12-29T07:06:48.535Z,10.4
2022-12-29T07:21:48.500Z,10.3
2022-12-29T07:36:48.529Z,10.2
2022-12-29T07:51:48.528Z,10.2
2022-12-29T08:06:48.528Z,10.2
2022-12-29T08:21:48.502Z,10.2
2022-12-29T08:36:48.522Z,10.1
2022-12-29T08:51:48.532Z,9.9
2022-12-29T09:06:48.490Z,10.2
2022-12-29T09:21:48.524Z,10.1
2022-12-29T09:36:48.513Z,10.1
2022-12-29T09:51:48.532Z,10.2
2022-12-29T10:07:19.684Z,10.1
2022-12-29T10:21:48.520Z,10.1
2022-12-29T10:36:48.491Z,10.3
2022-12-29T10:51:48.525Z,10.5
2022-12-29T11:06:48.529Z,10.6
2022-12-29T11:21:48.497Z,10.5
2022-12-29T11:36:48.493Z,10.4
2022-12-29T11:51:48.392Z,10.4
2022-12-29T12:06:48.491Z,10.4
2022-12-29T12:21:48.518Z,10.4
2022-12-29T12:36:48.523Z,10.4
2022-12-29T12:51:48.532Z,10.4
2022-12-29T13:06:48.521Z,10.2
2022-12-29T13:21:56.330Z,10.1
2022-12-29T13:36:48.538Z,10
2022-12-29T13:51:48.472Z,9.9
2022-12-29T14:06:48.523Z,9.9
2022-12-29T14:21:48.535Z,9.8
2022-12-29T14:36:48.488Z,9.7
2022-12-29T14:51:48.530Z,9.7
2022-12-29T15:06:48.521Z,9.6
2022-12-29T15:21:48.492Z,9.5
2022-12-29T15:36:48.500Z,9.3
2022-12-29T15:51:48.516Z,9.2
2022-12-29T16:06:48.502Z,8.9
2022-12-29T16:21:48.508Z,8.8
2022-12-29T16:36:48.504Z,8.9
2022-12-29T16:51:48.541Z,8.8
2022-12-29T17:06:48.515Z,8.7
2022-12-29T17:21:48.494Z,8.6
2022-12-29T17:36:48.529Z,7.9
2022-12-29T17:51:48.551Z,7.6
2022-12-29T18:06:48.534Z,7.6
2022-12-29T18:21:48.519Z,7.6
2022-12-29T18:36:48.513Z,7.4
2022-12-29T18:51:48.483Z,7.1
2022-12-29T19:06:48.521Z,6.9
2022-12-29T19:21:48.531Z,6.9
2022-12-29T19:36:48.509Z,6.8
2022-12-29T19:51:48.531Z,6.8
2022-12-29T20:06:48.498Z,6.9
2022-12-29T20:21:48.403Z,6.8
2022-12-29T20:36:48.549Z,6.9
2022-12-29T20:52:05.471Z,6.8
2022-12-29T21:06:48.469Z,6.8
2022-12-29T21:21:48.532Z,6.8
2022-12-29T21:36:48.469Z,6.6
2022-12-29T21:51:48.560Z,6.6
2022-12-29T22:06:48.501Z,6.5
2022-12-29T22:21:48.475Z,6.5
2022-12-29T22:36:48.495Z,6.4
2022-12-29T22:51:48.529Z,6.3
2022-12-29T23:06:48.516Z,6.2
2022-12-29T23:21:48.498Z,6.1
2022-12-29T23:36:48.498Z,6.1
2022-12-29T23:51:48.512Z,6
